Cohasset, MN (55721)

6:01 PM CDT on May 30, 2015 (GMT -0500)
Pooles Bay-Pokegama Lk-Gods Country | | Change Station
CLOSE
Current Station
Personal Weather Station
Location: Cohasset, MN
Elevation: 1286 ft
Nearby Weather Stations
Active Advisory: Frost Advisory

Elev 1286 ft 47.24 °N, 93.60 °W | Updated 14 seconds ago

Clear
Clear
57.4 °F
Feels Like 57.4 °F
N
0.0
Wind Variable Wind from WNW
Gusts 0.0 mph

Today
High -- | Low -- °F
--% Chance of Precip.
Yesterday
High -- | Low -- °F
Precip. -- in
5:23 AM 9:00 PM
Waxing Gibbous, 92% visible
Pressure 30.29 in
Visibility 10.0 miles
Clouds Clear
Dew Point 31 °F
Humidity 37%
Rainfall 0.00 in
Snow Depth Not available.
UV 2.0 out of 12
Pollen 8.30 out of 12
Air Quality Not available.
Flu Activity Sporadic
METAR KGPZ 302255Z AUTO 01005KT 10SM CLR 14/M03 A3029 RMK AO1

More Conditions Fewer Conditions

Pressure 30.29 in
Visibility 10.0 miles
Clouds Clear
Dew Point 31 °F
Humidity 37%
Rainfall 0.00 in
Snow Depth Not available.
UV 2.0 out of 12
Pollen 8.30 out of 12
Air Quality Not available.
Flu Activity Sporadic
METAR KGPZ 302255Z AUTO 01005KT 10SM CLR 14/M03 A3029 RMK AO1

More Conditions Fewer Conditions

10-Day Weather Forecast

Almanac

Astronomy

May. 30, 2015 Rise Set
Actual Time
Civil Twilight
Nautical Twilight
Astronomical Twilight
Moon
Length of Visible Light
Length of Day
Tomorrow will be .
, % of the Moon is Illuminated

Today's Extremes

State Highs State Lows

Community

WunderPhotos

Upload Photos

1,825,594 photos uploaded!

WunderBlogs® & News

Nearby

Air Quality

  Air Quality AQ Index Pollutant
Not available.

Snow Depth

Station Depth Elevation

Earthquake Activity

City Distance Mag. Time & Date
Minimum magnitude displayed is 2.5.

Coastal Water Temperatures

Place Temperature

Stations

Nearby Weather Stations

Station Location Temp. Windchill Dew Point Humidity Wind Precip. Elev Updated Type
                   
Frost Advisory
Statement as of 3:18 PM CDT on May 30, 2015

... Frost advisory in effect from midnight tonight to 8 am CDT
Sunday...

The National Weather Service in Duluth has issued a frost
advisory... which is in effect from midnight tonight to 8 am CDT
Sunday.

* Location... northeast Minnesota from International Falls to
Brainerd to Duluth... and southward to Hinckley.

* Temperatures... in the lower to mid 30s.

* Timing... the coldest temperatures will develop around or just
after midnight and persist through Sunday morning.

* Impacts... frost is expected to develop tonight. Temperatures
may drop to freezing in spots as well.

Precautionary/preparedness actions...

A frost advisory means that frost is possible. Sensitive outdoor
plants may be killed if left uncovered.



Bjt